Zim Rio Grande — 9HNV9 — position and weather

sailwx.info

Track history (hours):
 
Tides and Currents Weather Stations Pressure Air Temp Water Temp Dewpoint Dewpoint Depression Visibility Wind Speed Wind Dir Waves Ship Positions

Zim Rio Grande

Last reported at 2017-Mar-16 19:33 UTC. Time now 2017-Mar-23 14:27 UTC.
Position N 01°51' E 102°28'.

Length 260 m; draft 11.6 m.

Type: Cargo ship. MMSI: 249253000.

Date/timePositionNaut miles runAvg speedWind from/ knotsBaromVisibWave heightAir tempDewpointWater temp
2017-Mar-16 19:33N 01°51' E 102°28'1716.0
2017-Mar-16 18:30N 01°45' E 102°43'1615.8
2017-Mar-16 17:31N 01°38' E 102°57'3115.6
2017-Mar-16 15:32N 01°18' E 103°20'1514.7
2017-Mar-16 14:33N 01°12' E 103°34'1414.3
2017-Mar-16 13:32N 01°11' E 103°48'1616.0
2017-Mar-16 12:34N 01°16' E 104°03'  
2017-Mar-10 11:32N 29°23' E 122°50'1818.8
2017-Mar-10 10:33N 29°40' E 122°58'8914.7
2017-Mar-10 04:32N 31°06' E 122°30'1212.5
2017-Mar-10 03:34N 31°07' E 122°16'1514.6
2017-Mar-10 02:33N 31°14' E 122°01'1414.1
2017-Mar-10 01:33N 31°18' E 121°45'9 9.3
2017-Mar-10 00:33N 31°22' E 121°36'0 0.1
2017-Mar-09 23:31N 31°22' E 121°36'0 0.1
2017-Mar-09 22:31N 31°22' E 121°35'0 0.0
2017-Mar-09 21:28N 31°22' E 121°36'0 0.0
2017-Mar-09 20:25N 31°22' E 121°36'0 0.0
2017-Mar-09 19:31N 31°22' E 121°36'0 0.0
2017-Mar-09 18:28N 31°22' E 121°35'0 0.1
2017-Mar-09 17:28N 31°22' E 121°36'0 0.0
2017-Mar-09 16:31N 31°22' E 121°36'0 0.1
2017-Mar-09 15:31N 31°22' E 121°35'0 0.1
2017-Mar-09 14:31N 31°22' E 121°36'0 0.0
2017-Mar-09 13:28N 31°22' E 121°36'0 0.0
2017-Mar-09 12:31N 31°22' E 121°36'1 0.6
2017-Mar-09 11:33N 31°23' E 121°36'1111.0
2017-Mar-09 10:33N 31°18' E 121°47'1212.2
2017-Mar-09 09:33N 31°15' E 122°01'1110.8
2017-Mar-09 08:33N 31°10' E 122°12'1312.3
2017-Mar-09 07:33N 31°07' E 122°26'1111.4
2017-Mar-09 06:34N 31°05' E 122°39'1413.0
2017-Mar-09 05:31N 30°59' E 122°53'  
Track history (hours):
 
Tides and Currents Weather Stations Pressure Air Temp Water Temp Dewpoint Dewpoint Depression Visibility Wind Speed Wind Dir Waves Ship Positions

Zim Rio Grande

Last reported at 2017-Mar-16 19:33 UTC. Time now 2017-Mar-23 14:27 UTC.
Position N 01°51' E 102°28'.

Length 260 m; draft 11.6 m.

Type: Cargo ship. MMSI: 249253000.

Date/timePositionNaut miles runAvg speedWind from/ knotsBaromVisibWave heightAir tempDewpointWater temp
2017-Mar-16 19:33N 01°51' E 102°28'1716.0
2017-Mar-16 18:30N 01°45' E 102°43'1615.8
2017-Mar-16 17:31N 01°38' E 102°57'3115.6
2017-Mar-16 15:32N 01°18' E 103°20'1514.7
2017-Mar-16 14:33N 01°12' E 103°34'1414.3
2017-Mar-16 13:32N 01°11' E 103°48'1616.0
2017-Mar-16 12:34N 01°16' E 104°03'  
2017-Mar-10 11:32N 29°23' E 122°50'1818.8
2017-Mar-10 10:33N 29°40' E 122°58'8914.7
2017-Mar-10 04:32N 31°06' E 122°30'1212.5
2017-Mar-10 03:34N 31°07' E 122°16'1514.6
2017-Mar-10 02:33N 31°14' E 122°01'1414.1
2017-Mar-10 01:33N 31°18' E 121°45'9 9.3
2017-Mar-10 00:33N 31°22' E 121°36'0 0.1
2017-Mar-09 23:31N 31°22' E 121°36'0 0.1
2017-Mar-09 22:31N 31°22' E 121°35'0 0.0
2017-Mar-09 21:28N 31°22' E 121°36'0 0.0
2017-Mar-09 20:25N 31°22' E 121°36'0 0.0
2017-Mar-09 19:31N 31°22' E 121°36'0 0.0
2017-Mar-09 18:28N 31°22' E 121°35'0 0.1
2017-Mar-09 17:28N 31°22' E 121°36'0 0.0
2017-Mar-09 16:31N 31°22' E 121°36'0 0.1
2017-Mar-09 15:31N 31°22' E 121°35'0 0.1
2017-Mar-09 14:31N 31°22' E 121°36'0 0.0
2017-Mar-09 13:28N 31°22' E 121°36'0 0.0
2017-Mar-09 12:31N 31°22' E 121°36'1 0.6
2017-Mar-09 11:33N 31°23' E 121°36'1111.0
2017-Mar-09 10:33N 31°18' E 121°47'1212.2
2017-Mar-09 09:33N 31°15' E 122°01'1110.8
2017-Mar-09 08:33N 31°10' E 122°12'1312.3
2017-Mar-09 07:33N 31°07' E 122°26'1111.4
2017-Mar-09 06:34N 31°05' E 122°39'1413.0
2017-Mar-09 05:31N 30°59' E 122°53'  

Dump ship's entire track history